Thunder radar more information blitzortung!


Radar de pluja more information rain snow radar


Visita la nostra xarxa de llocs de meteo:

Template documentation
and downloads

And another site



No particular awareness of the weather is required.    There are no Weather-warnings

Pagina Historial Weather Underground text

Diari Resum Juliol 21, 2017 Unitats:  Mètric    Imperial   Tant
« Previous Dia
SegĂźent Dia »
Diari Setmana Mensual Anual Personalitzada
  Maxima: Minima: Media:
Temperatura: 28.4 °C 19.7 °C 24.1 °C
Punt de rosada: 18.5 °C 15.2 °C 17 °C
Humitat: 86 % 51 % 65 %
Wind Speed: 14.8 km/h 0.0 km/h 3.9 km/h
RĂ fegues de vent: 14.8 km/h - -
Vent:- - SSE
Pression baro: 1011.7 hPa 1007.0 hPa -
Precipitacions: 1.0 mm    
Historical Graphs
 
 
Dades de taula per Juliol 21, 2017
Temps Temperatura Punt de rosada Pression baro Vent Wind Speed RĂ fegues de vent Humitat Rainfall Rate (Hourly)
00:00 23.2 °C 16.0 °C 1010.7 hPa ENE 2.3 km/h 2.3 km/h 64 % 0.0 mm
00:05 20.8 °C 15.3 °C 1010.0 hPa WNW 1.6 km/h 3.2 km/h 71 % 0.0 mm
00:15 20.8 °C 15.6 °C 1010.0 hPa Calm     72 % 0.0 mm
00:25 20.7 °C 15.4 °C 1010.0 hPa WSW 1.6 km/h 3.2 km/h 72 % 0.0 mm
00:35 20.6 °C 15.4 °C 1010.0 hPa West 1.6 km/h 3.2 km/h 72 % 0.0 mm
00:45 20.4 °C 15.2 °C 1010.0 hPa West 1.6 km/h 1.6 km/h 72 % 0.0 mm
00:55 20.4 °C 15.4 °C 1010.0 hPa Calm   3.2 km/h 73 % 0.0 mm
01:05 20.4 °C 15.4 °C 1010.0 hPa Calm     73 % 0.0 mm
01:15 20.6 °C 15.6 °C 1010.0 hPa WSW 1.6 km/h 1.6 km/h 73 % 0.0 mm
01:25 20.6 °C 15.6 °C 1010.0 hPa West 1.6 km/h 3.2 km/h 73 % 0.0 mm
01:35 20.6 °C 15.6 °C 1010.0 hPa Calm   3.2 km/h 73 % 0.0 mm
01:45 20.5 °C 15.5 °C 1010.0 hPa Calm     73 % 0.0 mm
01:55 20.4 °C 15.4 °C 1010.0 hPa Calm   1.6 km/h 73 % 0.0 mm
02:05 20.4 °C 15.4 °C 1010.0 hPa NE 1.6 km/h 3.2 km/h 73 % 0.0 mm
02:15 20.5 °C 15.5 °C 1010.0 hPa Calm   4.8 km/h 73 % 0.0 mm
02:25 20.4 °C 15.2 °C 1010.0 hPa NE 3.2 km/h 3.2 km/h 72 % 0.0 mm
02:35 20.4 °C 15.4 °C 1010.0 hPa West 1.6 km/h 1.6 km/h 73 % 0.0 mm
02:45 20.6 °C 15.6 °C 1010.0 hPa Calm   3.2 km/h 73 % 0.0 mm
02:55 21.2 °C 16.2 °C 1010.0 hPa Calm   3.2 km/h 73 % 0.0 mm
03:05 21.3 °C 16.1 °C 1010.0 hPa SW 1.6 km/h 3.2 km/h 72 % 0.0 mm
03:15 21.7 °C 16.2 °C 1010.0 hPa SW 1.6 km/h 3.2 km/h 71 % 0.0 mm
03:25 22.5 °C 16.5 °C 1010.0 hPa SW 1.6 km/h 3.2 km/h 69 % 0.0 mm
03:35 22.8 °C 16.8 °C 1010.0 hPa Calm   3.2 km/h 69 % 0.0 mm
03:45 23.0 °C 16.6 °C 1010.0 hPa SSW 1.6 km/h 3.2 km/h 67 % 0.0 mm
03:55 23.2 °C 16.7 °C 1010.0 hPa SSW 1.6 km/h 4.8 km/h 67 % 0.0 mm
04:05 23.6 °C 16.9 °C 1010.0 hPa Calm   1.6 km/h 66 % 0.0 mm
04:15 24.1 °C 16.9 °C 1009.0 hPa SW 3.2 km/h 3.2 km/h 64 % 0.0 mm
04:25 23.9 °C 16.9 °C 1010.7 hPa SSW 1.6 km/h 4.8 km/h 65 % 0.0 mm
04:35 24.4 °C 16.9 °C 1010.7 hPa SSE 4.8 km/h 4.8 km/h 63 % 0.0 mm
04:45 24.7 °C 17.2 °C 1009.0 hPa Calm   4.8 km/h 63 % 0.0 mm
04:55 24.3 °C 16.8 °C 1010.0 hPa SW 1.6 km/h 6.4 km/h 63 % 0.0 mm
05:05 24.4 °C 16.7 °C 1010.0 hPa SW 1.6 km/h 4.8 km/h 62 % 0.0 mm
05:15 24.6 °C 16.8 °C 1010.0 hPa SW 1.6 km/h 3.2 km/h 62 % 0.0 mm
05:25 25.0 °C 16.7 °C 1010.7 hPa SW 1.6 km/h 6.4 km/h 60 % 0.0 mm
05:35 26.0 °C 17.4 °C 1010.7 hPa WSW 3.2 km/h 4.8 km/h 59 % 0.0 mm
10:35 26.0 °C 17.4 °C 1010.0 hPa NNE 10.0 km/h 10.0 km/h 59 % 0.0 mm
10:40 26.3 °C 17.4 °C 1010.0 hPa North 3.7 km/h 3.7 km/h 58 % 0.0 mm
10:45 26.2 °C 17.3 °C 1010.0 hPa NNW 5.6 km/h 5.6 km/h 58 % 0.0 mm
10:51 25.9 °C 17.0 °C 1010.0 hPa NE 5.8 km/h 5.8 km/h 58 % 0.0 mm
10:56 25.8 °C 16.6 °C 1010.0 hPa NNE 9.3 km/h 9.3 km/h 57 % 0.0 mm
11:01 25.6 °C 16.2 °C 1010.0 hPa ENE 9.3 km/h 9.3 km/h 56 % 0.0 mm
11:04 25.7 °C 16.6 °C 1010.0 hPa ENE 7.4 km/h 7.4 km/h 57 % 0.0 mm
11:09 25.7 °C 16.3 °C 1010.0 hPa NNE 9.3 km/h 9.3 km/h 56 % 0.0 mm
11:14 25.6 °C 16.2 °C 1010.0 hPa NE 8.7 km/h 8.7 km/h 56 % 0.0 mm
11:19 25.8 °C 16.6 °C 1010.0 hPa NE 7.4 km/h 7.4 km/h 57 % 0.0 mm
11:24 25.8 °C 16.3 °C 1009.0 hPa NNE 11.1 km/h 11.1 km/h 56 % 0.0 mm
11:29 26.0 °C 16.3 °C 1009.0 hPa NNE 14.8 km/h 14.8 km/h 55 % 0.0 mm
11:34 26.3 °C 16.6 °C 1009.0 hPa NNE 9.0 km/h 9.0 km/h 55 % 0.0 mm
11:39 26.1 °C 16.1 °C 1009.0 hPa NNW 14.8 km/h 14.8 km/h 54 % 0.0 mm
11:49 26.5 °C 16.4 °C 1009.0 hPa ESE 6.9 km/h 6.9 km/h 54 % 0.0 mm
11:54 26.5 °C 16.4 °C 1009.0 hPa NNE 7.4 km/h 7.4 km/h 54 % 0.0 mm
11:59 26.2 °C 15.9 °C 1009.0 hPa NNE 12.2 km/h 12.2 km/h 53 % 0.0 mm
12:04 25.7 °C 15.7 °C 1009.0 hPa ENE 13.0 km/h 13.0 km/h 54 % 0.0 mm
12:09 25.6 °C 15.6 °C 1010.0 hPa East 11.1 km/h 11.1 km/h 54 % 0.0 mm
12:14 25.5 °C 15.5 °C 1010.0 hPa ENE 4.2 km/h 4.2 km/h 54 % 0.0 mm
12:19 25.3 °C 15.6 °C 1010.0 hPa NNE 7.9 km/h 7.9 km/h 55 % 0.0 mm
12:25 24.7 °C 16.2 °C 1009.0 hPa North 3.2 km/h 11.3 km/h 59 % 0.0 mm
12:30 24.1 °C 16.1 °C 1009.0 hPa NNW 3.2 km/h 11.3 km/h 61 % 0.0 mm
12:35 23.3 °C 16.1 °C 1009.0 hPa NE 7.4 km/h 7.4 km/h 64 % 0.0 mm
12:40 22.7 °C 15.8 °C 1010.7 hPa NNE 8.0 km/h 11.3 km/h 65 % 0.0 mm
12:45 22.6 °C 15.9 °C 1010.7 hPa NNW 3.5 km/h 3.5 km/h 66 % 0.0 mm
12:50 22.4 °C 16.2 °C 1010.7 hPa East 3.7 km/h 3.7 km/h 68 % 0.0 mm
12:55 22.1 °C 15.9 °C 1010.0 hPa NNE 1.6 km/h 6.4 km/h 68 % 0.0 mm
13:00 22.0 °C 16.1 °C 1010.0 hPa NNE 4.8 km/h 8.0 km/h 69 % 0.0 mm
13:05 21.7 °C 16.2 °C 1010.0 hPa NNE 1.6 km/h 6.4 km/h 71 % 0.0 mm
13:10 21.7 °C 16.7 °C 1010.0 hPa NNE 3.2 km/h 4.8 km/h 73 % 0.0 mm
13:15 21.7 °C 16.7 °C 1010.0 hPa ENE 3.7 km/h 3.7 km/h 73 % 0.0 mm
13:20 21.6 °C 16.8 °C 1010.0 hPa WNW 3.7 km/h 3.7 km/h 74 % 0.0 mm
13:25 21.7 °C 17.1 °C 1010.0 hPa West 3.7 km/h 3.7 km/h 75 % 0.0 mm
13:26 21.7 °C 17.1 °C 1010.0 hPa SW 3.7 km/h 3.7 km/h 75 % 0.0 mm
13:31 21.8 °C 17.6 °C 1010.0 hPa SSW 3.7 km/h 3.7 km/h 77 % 0.0 mm
13:36 21.5 °C 17.3 °C 1010.7 hPa SE 1.9 km/h 1.9 km/h 77 % 0.0 mm
13:41 21.7 °C 17.5 °C 1010.7 hPa East 3.7 km/h 3.7 km/h 77 % 0.0 mm
13:46 21.7 °C 17.3 °C 1010.7 hPa WSW 3.9 km/h 3.9 km/h 76 % 1.0 mm
13:51 21.8 °C 18.0 °C 1010.0 hPa SSE 1.9 km/h   79 % 1.0 mm
13:56 21.8 °C 17.8 °C 1010.0 hPa NNE 2.6 km/h   78 % 1.0 mm
14:01 21.7 °C 17.5 °C 1010.0 hPa NNE 1.9 km/h   77 % 1.0 mm
14:06 21.8 °C 17.4 °C 1010.0 hPa NW 3.9 km/h 3.9 km/h 76 % 1.0 mm
14:11 22.1 °C 17.9 °C 1010.0 hPa East 5.6 km/h 5.6 km/h 77 % 1.0 mm
14:16 22.0 °C 17.8 °C 1010.0 hPa NNE 1.9 km/h   77 % 1.0 mm
14:21 22.1 °C 17.7 °C 1010.0 hPa NNE 5.6 km/h 5.6 km/h 76 % 1.0 mm
14:26 22.3 °C 17.9 °C 1010.0 hPa NW 5.3 km/h 5.3 km/h 76 % 1.0 mm
14:31 22.3 °C 17.7 °C 1010.0 hPa South 5.6 km/h 5.6 km/h 75 % 1.0 mm
14:36 22.5 °C 18.1 °C 1010.0 hPa NE 3.7 km/h 3.7 km/h 76 % 1.0 mm
14:41 22.5 °C 17.8 °C 1010.0 hPa NNE 5.6 km/h 5.6 km/h 75 % 1.0 mm
14:46 22.5 °C 17.8 °C 1010.0 hPa ENE 5.6 km/h 5.6 km/h 75 % 0.0 mm
14:51 22.6 °C 17.9 °C 1009.0 hPa ENE 5.6 km/h 5.6 km/h 75 % 0.0 mm
14:56 22.6 °C 17.9 °C 1009.0 hPa NNE 5.8 km/h 5.8 km/h 75 % 0.0 mm
15:02 22.9 °C 18.2 °C 1009.0 hPa ENE 3.7 km/h 3.7 km/h 75 % 0.0 mm
15:07 23.2 °C 18.3 °C 1010.0 hPa NNE 3.9 km/h 3.9 km/h 74 % 0.0 mm
15:12 23.2 °C 18.1 °C 1010.0 hPa ENE 7.4 km/h 7.4 km/h 73 % 0.0 mm
15:17 23.6 °C 18.3 °C 1010.0 hPa ENE 7.4 km/h 7.4 km/h 72 % 0.0 mm
15:22 24.1 °C 18.5 °C 1010.0 hPa ESE 3.7 km/h 3.7 km/h 71 % 0.0 mm
15:27 24.5 °C 18.4 °C 1010.0 hPa NNE 5.6 km/h 5.6 km/h 69 % 0.0 mm
15:32 24.3 °C 18.0 °C 1010.0 hPa ENE 7.4 km/h 7.4 km/h 68 % 0.0 mm
15:38 24.3 °C 17.8 °C 1009.0 hPa NNE 5.6 km/h 5.6 km/h 67 % 0.0 mm
15:43 24.4 °C 17.9 °C 1009.0 hPa NNE 5.6 km/h 5.6 km/h 67 % 0.0 mm
15:48 24.6 °C 18.1 °C 1009.0 hPa NE 5.6 km/h 5.6 km/h 67 % 0.0 mm
15:53 25.0 °C 17.9 °C 1010.0 hPa ENE 5.6 km/h 5.6 km/h 65 % 0.0 mm
15:58 25.4 °C 18.3 °C 1010.0 hPa NNE 7.4 km/h 7.4 km/h 65 % 0.0 mm
16:03 25.6 °C 18.1 °C 1010.0 hPa ENE 5.6 km/h 5.6 km/h 63 % 0.0 mm
16:08 25.6 °C 18.1 °C 1010.0 hPa ENE 5.6 km/h 5.6 km/h 63 % 0.0 mm
16:13 26.0 °C 18.2 °C 1010.7 hPa North 3.7 km/h 3.7 km/h 62 % 0.0 mm
16:19 26.0 °C 17.9 °C 1010.7 hPa NE 3.7 km/h 3.7 km/h 61 % 0.0 mm
16:24 26.2 °C 17.6 °C 1010.0 hPa NE 5.6 km/h 5.6 km/h 59 % 0.0 mm
16:29 26.7 °C 17.5 °C 1010.0 hPa ESE 7.9 km/h   57 % 0.0 mm
16:34 26.9 °C 17.9 °C 1010.0 hPa SW 7.4 km/h 7.4 km/h 58 % 0.0 mm
16:39 27.0 °C 17.2 °C 1010.0 hPa NNW 4.2 km/h 4.2 km/h 55 % 0.0 mm
16:45 26.7 °C 17.2 °C 1010.0 hPa NE 3.7 km/h 3.7 km/h 56 % 0.0 mm
16:50 26.8 °C 17.3 °C 1010.0 hPa NW 3.7 km/h   56 % 0.0 mm
16:55 27.0 °C 17.2 °C 1010.0 hPa NE 1.6 km/h 3.2 km/h 55 % 0.0 mm
17:00 27.1 °C 17.3 °C 1010.0 hPa West 3.2 km/h 4.8 km/h 55 % 0.0 mm
17:05 27.2 °C 17.4 °C 1010.0 hPa WSW 3.2 km/h 6.4 km/h 55 % 0.0 mm
17:10 27.3 °C 17.4 °C 1009.0 hPa SW 3.2 km/h 4.8 km/h 55 % 0.0 mm
17:15 27.3 °C 17.2 °C 1009.0 hPa Calm   4.8 km/h 54 % 0.0 mm
17:20 26.9 °C 16.8 °C 1009.0 hPa ESE 7.4 km/h 7.4 km/h 54 % 0.0 mm
17:25 26.9 °C 17.1 °C 1009.0 hPa NNE 3.2 km/h 4.8 km/h 55 % 0.0 mm
17:30 26.7 °C 16.6 °C 1009.0 hPa ENE 3.2 km/h 8.0 km/h 54 % 0.0 mm
17:35 26.7 °C 16.6 °C 1009.0 hPa NE 3.2 km/h 6.4 km/h 54 % 0.0 mm
17:40 26.6 °C 16.6 °C 1009.0 hPa NNE 1.6 km/h 6.4 km/h 54 % 0.0 mm
17:45 26.7 °C 16.6 °C 1009.0 hPa NNE 3.2 km/h 8.0 km/h 54 % 0.0 mm
17:50 26.7 °C 16.7 °C 1009.0 hPa NE 1.6 km/h 8.0 km/h 54 % 0.0 mm
17:55 26.8 °C 16.7 °C 1008.0 hPa NNE 1.6 km/h 6.4 km/h 54 % 0.0 mm
18:00 26.8 °C 17.0 °C 1008.0 hPa North 3.2 km/h 8.0 km/h 55 % 0.0 mm
18:05 26.9 °C 16.8 °C 1008.0 hPa NE 1.6 km/h 4.8 km/h 54 % 0.0 mm
18:10 27.0 °C 17.2 °C 1009.0 hPa NNW 3.2 km/h 6.4 km/h 55 % 0.0 mm
18:15 27.1 °C 16.7 °C 1009.0 hPa North 1.6 km/h 6.4 km/h 53 % 0.0 mm
18:20 28.0 °C 17.5 °C 1009.0 hPa WNW 3.7 km/h 3.7 km/h 53 % 0.0 mm
18:26 28.2 °C 17.7 °C 1009.0 hPa South 7.4 km/h 7.4 km/h 53 % 0.0 mm
18:31 27.9 °C 17.1 °C 1009.0 hPa South 3.9 km/h 3.9 km/h 52 % 0.0 mm
18:36 27.6 °C 17.2 °C 1008.0 hPa West 3.7 km/h 3.7 km/h 53 % 0.0 mm
18:41 27.9 °C 17.4 °C 1008.0 hPa South 3.5 km/h 3.5 km/h 53 % 0.0 mm
18:42 28.0 °C 17.5 °C 1008.0 hPa West 3.7 km/h 3.7 km/h 53 % 0.0 mm
18:47 28.2 °C 17.4 °C 1008.0 hPa WSW 3.9 km/h 3.9 km/h 52 % 0.0 mm
18:53 28.3 °C 17.5 °C 1008.0 hPa SE 5.6 km/h 5.6 km/h 52 % 0.0 mm
18:58 28.2 °C 17.1 °C 1008.0 hPa ENE 3.7 km/h 3.7 km/h 51 % 0.0 mm
19:03 28.4 °C 17.6 °C 1008.0 hPa NNW 3.7 km/h 3.7 km/h 52 % 0.0 mm
19:08 28.1 °C 17.3 °C 1008.0 hPa NW 3.7 km/h 3.7 km/h 52 % 0.0 mm
19:10 22.4 °C 17.6 °C 1010.0 hPa WSW 1.6 km/h 3.2 km/h 74 % 0.0 mm
19:13 28.0 °C 17.2 °C 1008.0 hPa SW 2.6 km/h 2.6 km/h 52 % 0.0 mm
19:18 28.2 °C 17.4 °C 1008.0 hPa WSW 3.7 km/h   52 % 0.0 mm
19:20 22.3 °C 17.4 °C 1010.0 hPa West 1.6 km/h 3.2 km/h 74 % 0.0 mm
19:23 28.1 °C 17.3 °C 1007.0 hPa SW 7.4 km/h 7.4 km/h 52 % 0.0 mm
19:29 28.0 °C 17.2 °C 1007.0 hPa South 5.6 km/h 5.6 km/h 52 % 0.0 mm
19:30 22.3 °C 17.7 °C 1010.0 hPa Calm   4.8 km/h 75 % 0.0 mm
19:34 27.9 °C 17.1 °C 1007.0 hPa WSW 3.7 km/h 3.7 km/h 52 % 0.0 mm
19:39 27.6 °C 16.8 °C 1008.0 hPa NNE 1.9 km/h   52 % 0.0 mm
19:40 22.2 °C 17.6 °C 1010.0 hPa West 1.6 km/h 3.2 km/h 75 % 0.0 mm
19:44 27.6 °C 16.8 °C 1008.0 hPa WSW 5.6 km/h 5.6 km/h 52 % 0.0 mm
19:50 27.7 °C 17.3 °C 1008.0 hPa SW 5.6 km/h 5.6 km/h 53 % 0.0 mm
19:55 27.6 °C 16.9 °C 1008.0 hPa SW 4.8 km/h 8.0 km/h 52 % 0.0 mm
20:00 27.4 °C 17.1 °C 1008.0 hPa SW 1.6 km/h 8.0 km/h 53 % 0.0 mm
20:05 27.5 °C 17.1 °C 1008.0 hPa SW 3.2 km/h 6.4 km/h 53 % 0.0 mm
20:10 27.4 °C 17.0 °C 1008.0 hPa SW 4.8 km/h 6.4 km/h 53 % 0.0 mm
20:15 27.2 °C 17.1 °C 1008.0 hPa SW 3.2 km/h 4.8 km/h 54 % 0.0 mm
20:20 27.1 °C 17.0 °C 1008.0 hPa SW 5.6 km/h 5.6 km/h 54 % 0.0 mm
20:25 27.0 °C 16.9 °C 1008.0 hPa WSW 5.6 km/h 5.6 km/h 54 % 0.0 mm
20:30 26.9 °C 17.4 °C 1008.0 hPa WSW 3.7 km/h 3.9 km/h 56 % 0.0 mm
20:35 26.7 °C 17.2 °C 1008.0 hPa WSW 5.6 km/h 5.6 km/h 56 % 0.0 mm
20:40 26.5 °C 17.3 °C 1008.0 hPa SW 7.4 km/h 7.4 km/h 57 % 0.0 mm
20:45 26.3 °C 17.1 °C 1008.0 hPa SSW 5.6 km/h 5.6 km/h 57 % 0.0 mm
20:50 21.6 °C 17.6 °C 1010.7 hPa West 1.6 km/h 1.6 km/h 78 % 0.0 mm
20:52 26.1 °C 17.2 °C 1009.0 hPa SW 3.7 km/h 3.7 km/h 58 % 0.0 mm
20:57 26.0 °C 17.1 °C 1009.0 hPa West 5.6 km/h 5.6 km/h 58 % 0.0 mm
21:00 21.5 °C 17.7 °C 1010.7 hPa Calm     79 % 0.0 mm
21:02 25.9 °C 17.3 °C 1009.0 hPa SW 3.7 km/h 3.7 km/h 59 % 0.0 mm
21:07 25.8 °C 17.2 °C 1009.0 hPa SW 3.7 km/h 3.9 km/h 59 % 0.0 mm
21:10 21.4 °C 17.8 °C 1010.7 hPa Calm     80 % 0.0 mm
21:12 25.6 °C 17.3 °C 1009.0 hPa SW 5.6 km/h 5.6 km/h 60 % 0.0 mm
21:17 25.4 °C 17.1 °C 1009.0 hPa SW 3.9 km/h 3.9 km/h 60 % 0.0 mm
21:20 21.3 °C 17.7 °C 1010.7 hPa WNW 1.6 km/h   80 % 0.0 mm
21:22 25.3 °C 17.0 °C 1009.0 hPa SW 5.6 km/h 5.6 km/h 60 % 0.0 mm
21:27 25.2 °C 17.2 °C 1009.0 hPa SW 3.7 km/h 3.7 km/h 61 % 0.0 mm
21:30 21.2 °C 17.6 °C 1010.7 hPa NW 1.6 km/h 1.6 km/h 80 % 0.0 mm
21:32 25.1 °C 17.1 °C 1009.0 hPa SW 5.6 km/h 5.6 km/h 61 % 0.0 mm
21:37 24.9 °C 17.4 °C 1009.0 hPa SW 4.2 km/h 4.2 km/h 63 % 0.0 mm
21:40 21.1 °C 17.5 °C 1011.7 hPa NW 1.6 km/h 1.6 km/h 80 % 0.0 mm
21:42 24.8 °C 17.3 °C 1009.0 hPa SW 5.6 km/h 5.6 km/h 63 % 0.0 mm
21:47 24.7 °C 17.4 °C 1009.0 hPa SSW 7.4 km/h 7.4 km/h 64 % 0.0 mm
21:50 21.0 °C 17.4 °C 1011.7 hPa Calm   3.2 km/h 80 % 0.0 mm
21:52 24.6 °C 17.3 °C 1010.0 hPa SW 7.4 km/h 7.4 km/h 64 % 0.0 mm
21:57 24.5 °C 17.5 °C 1010.0 hPa SW 5.6 km/h 5.6 km/h 65 % 0.0 mm
22:00 20.9 °C 17.5 °C 1011.7 hPa Calm   1.6 km/h 81 % 0.0 mm
22:02 24.4 °C 17.4 °C 1010.0 hPa SSW 9.3 km/h 9.3 km/h 65 % 0.0 mm
22:07 24.2 °C 17.4 °C 1010.0 hPa SSW 9.0 km/h 9.0 km/h 66 % 0.0 mm
22:10 20.7 °C 17.3 °C 1010.7 hPa West 1.6 km/h 1.6 km/h 81 % 0.0 mm
22:12 24.0 °C 17.3 °C 1010.0 hPa WSW 7.4 km/h 7.4 km/h 66 % 0.0 mm
22:17 23.9 °C 17.6 °C 1010.0 hPa SSW 5.8 km/h 5.8 km/h 68 % 0.0 mm
22:20 20.6 °C 17.4 °C 1010.7 hPa Calm   3.2 km/h 82 % 0.0 mm
22:22 23.8 °C 17.6 °C 1010.0 hPa South 7.4 km/h 7.4 km/h 68 % 0.0 mm
22:27 23.7 °C 17.4 °C 1010.0 hPa West 5.6 km/h 5.6 km/h 68 % 0.0 mm
22:30 20.6 °C 17.6 °C 1011.7 hPa Calm     83 % 0.0 mm
22:32 23.6 °C 17.6 °C 1010.0 hPa SW 3.9 km/h 3.9 km/h 69 % 0.0 mm
22:37 23.5 °C 17.5 °C 1009.0 hPa WSW 3.7 km/h 3.7 km/h 69 % 0.0 mm
22:40 20.6 °C 17.6 °C 1010.7 hPa West 1.6 km/h 1.6 km/h 83 % 0.0 mm
22:42 23.5 °C 17.5 °C 1009.0 hPa WNW 4.2 km/h 4.2 km/h 69 % 0.0 mm
22:47 23.4 °C 17.6 °C 1009.0 hPa WSW 3.7 km/h 3.7 km/h 70 % 0.0 mm
22:50 20.3 °C 17.3 °C 1010.7 hPa Calm   3.2 km/h 83 % 0.0 mm
22:53 23.3 °C 17.5 °C 1010.0 hPa WSW 3.9 km/h 3.9 km/h 70 % 0.0 mm
22:58 23.2 °C 17.4 °C 1010.0 hPa WSW 3.7 km/h 3.7 km/h 70 % 0.0 mm
23:00 20.2 °C 17.2 °C 1010.7 hPa Calm   1.6 km/h 83 % 0.0 mm
23:03 23.1 °C 17.3 °C 1010.0 hPa WSW 3.9 km/h 3.9 km/h 70 % 0.0 mm
23:08 23.0 °C 17.2 °C 1010.0 hPa SW 5.6 km/h 5.6 km/h 70 % 0.0 mm
23:10 20.1 °C 17.3 °C 1010.7 hPa Calm     84 % 0.0 mm
23:13 23.0 °C 17.4 °C 1010.0 hPa SW 3.9 km/h 4.7 km/h 71 % 0.0 mm
23:18 22.8 °C 17.5 °C 1010.0 hPa SW 3.7 km/h   72 % 0.0 mm
23:20 20.0 °C 17.2 °C 1010.7 hPa WNW 1.6 km/h 1.6 km/h 84 % 0.0 mm
23:23 22.8 °C 17.3 °C 1009.0 hPa SW 3.7 km/h 3.7 km/h 71 % 0.0 mm
23:28 22.7 °C 17.4 °C 1009.0 hPa WSW 4.2 km/h 4.2 km/h 72 % 0.0 mm
23:30 19.8 °C 17.2 °C 1010.7 hPa West 1.6 km/h 3.2 km/h 85 % 0.0 mm
23:33 22.7 °C 17.4 °C 1009.0 hPa Calm     72 % 0.0 mm
23:38 22.6 °C 17.5 °C 1010.0 hPa WSW 1.9 km/h   73 % 0.0 mm
23:40 19.7 °C 17.3 °C 1010.7 hPa Calm     86 % 0.0 mm
23:43 22.5 °C 17.4 °C 1010.0 hPa NW 3.5 km/h 3.5 km/h 73 % 0.0 mm
23:48 22.5 °C 17.4 °C 1010.0 hPa WNW 1.9 km/h 1.9 km/h 73 % 0.0 mm
23:50 19.7 °C 17.3 °C 1010.7 hPa Calm     86 % 0.0 mm
23:53 22.5 °C 17.4 °C 1010.0 hPa WSW 3.7 km/h 3.7 km/h 73 % 0.0 mm
23:58 22.4 °C 17.6 °C 1010.0 hPa SW 3.7 km/h 3.7 km/h 74 % 0.0 mm
Meteo Sesrovires
Elogis d' Weather Underground - 3.75 mb

Guio original per  Jim McMurry - jmcmurry@mwt.net Adaptat per a la plantilla per  Wim van der Kuil - Leuven-Template.eu

Trobareu la nostra informacio del temps tambe a:

Weather Underground

AWEKAS